Time;durP1;ratioP1;P1;durP2;ratioP2;P2;SDS_P1;SDS_P2;PMS_P1;PMS_P2;Temp;Humidity;BMP_temperature;BMP_pressure;BME280_temperature;BME280_humidity;BME280_pressure;Samples;Min_cycle;Max_cycle;Signal;HPM_P1;HPM_P2
2022/09/24 00:01:09;;;;;;;38.67;33.33;;;;;;;;;;5045410;28;20437;-81
2022/09/24 00:03:36;;;;;;;37.03;32.42;;;;;;;;;;5045772;28;20953;-81
2022/09/24 00:06:05;;;;;;;45.72;37.83;;;;;;;;;;5044049;28;20441;-81
2022/09/24 00:08:34;;;;;;;42.20;37.70;;;;;;;;;;5044590;28;20869;-81
2022/09/24 00:11:01;;;;;;;44.28;37.85;;;;;;;;;;5041577;28;20466;-82
2022/09/24 00:13:27;;;;;;;43.15;38.08;;;;;;;;;;5041755;28;20421;-82
2022/09/24 00:15:54;;;;;;;50.10;41.38;;;;;;;;;;5044213;28;20794;-83
2022/09/24 00:18:20;;;;;;;49.15;40.63;;;;;;;;;;5041548;28;20949;-83
2022/09/24 00:20:47;;;;;;;51.88;43.72;;;;;;;;;;5044190;28;20445;-83
2022/09/24 00:23:14;;;;;;;51.88;42.22;;;;;;;;;;5041962;28;20782;-82
2022/09/24 00:28:26;;;;;;;51.50;44.33;;;;;;;;;;5042809;28;20445;-80
2022/09/24 00:30:53;;;;;;;50.28;42.17;;;;;;;;;;5042308;28;20416;-80
2022/09/24 00:33:20;;;;;;;51.42;42.58;;;;;;;;;;5041881;28;20795;-80
2022/09/24 00:35:46;;;;;;;52.72;43.03;;;;;;;;;;5041197;28;20442;-81
2022/09/24 00:38:12;;;;;;;55.05;45.55;;;;;;;;;;5044255;28;20483;-82
2022/09/24 00:40:40;;;;;;;50.53;43.58;;;;;;;;;;5040181;28;20786;-80
2022/09/24 00:46:13;;;;;;;56.07;44.67;;;;;;;;;;5078533;28;20368;-82
2022/09/24 00:48:40;;;;;;;54.28;44.17;;;;;;;;;;5000876;28;20931;-82
2022/09/24 00:51:07;;;;;;;53.67;42.83;;;;;;;;;;4980962;28;20454;-83
2022/09/24 00:53:34;;;;;;;52.30;43.55;;;;;;;;;;4979630;28;20532;-81
2022/09/24 00:56:02;;;;;;;49.13;42.47;;;;;;;;;;4982915;28;20454;-80
2022/09/24 00:58:30;;;;;;;53.58;44.05;;;;;;;;;;4991622;28;20441;-81
2022/09/24 01:00:58;;;;;;;52.13;44.95;;;;;;;;;;5002529;28;20439;-82
2022/09/24 01:03:27;;;;;;;51.17;41.65;;;;;;;;;;5001643;28;20434;-81
2022/09/24 01:05:54;;;;;;;47.50;40.78;;;;;;;;;;5001202;28;20483;-82
2022/09/24 01:08:20;;;;;;;50.95;41.72;;;;;;;;;;5000823;28;20812;-82
2022/09/24 01:11:03;;;;;;;50.55;41.38;;;;;;;;;;5001528;28;20441;-82
2022/09/24 01:13:48;;;;;;;51.60;43.53;;;;;;;;;;5001629;28;20429;-82
2022/09/24 01:16:18;;;;;;;52.28;42.30;;;;;;;;;;5002163;28;20453;-82
2022/09/24 01:18:49;;;;;;;49.40;41.70;;;;;;;;;;5000658;28;20442;-80
2022/09/24 01:21:27;;;;;;;48.40;43.03;;;;;;;;;;5002789;28;20436;-80
2022/09/24 01:24:03;;;;;;;49.58;41.72;;;;;;;;;;5001031;28;20435;-82
2022/09/24 01:26:39;;;;;;;50.85;40.00;;;;;;;;;;5001169;28;21232;-82
2022/09/24 01:29:22;;;;;;;50.70;41.40;;;;;;;;;;4999599;28;20443;-82
2022/09/24 01:31:50;;;;;;;50.40;41.30;;;;;;;;;;5000248;28;20444;-82
2022/09/24 01:34:20;;;;;;;48.47;40.08;;;;;;;;;;4999917;28;20429;-82
2022/09/24 01:36:48;;;;;;;50.15;39.33;;;;;;;;;;5000610;28;20456;-81
2022/09/24 01:39:16;;;;;;;48.33;39.27;;;;;;;;;;4995842;28;20447;-81
2022/09/24 01:41:43;;;;;;;53.20;41.93;;;;;;;;;;4998218;28;20516;-82
2022/09/24 01:44:10;;;;;;;48.92;40.17;;;;;;;;;;5000951;28;20493;-81
2022/09/24 01:46:39;;;;;;;51.65;39.55;;;;;;;;;;4999762;28;20429;-81
2022/09/24 01:49:06;;;;;;;49.65;38.95;;;;;;;;;;5000703;28;20434;-82
2022/09/24 01:51:36;;;;;;;47.40;38.42;;;;;;;;;;4998740;28;20443;-81
2022/09/24 01:54:03;;;;;;;45.97;38.10;;;;;;;;;;4999873;28;20461;-82
2022/09/24 01:56:32;;;;;;;47.78;38.13;;;;;;;;;;4989722;28;20445;-82
2022/09/24 01:59:01;;;;;;;45.17;35.85;;;;;;;;;;4987205;28;20459;-82
2022/09/24 02:01:30;;;;;;;46.08;37.40;;;;;;;;;;4986508;28;20448;-82
2022/09/24 02:04:00;;;;;;;49.65;39.00;;;;;;;;;;4984687;28;20432;-82
2022/09/24 02:06:31;;;;;;;49.55;37.67;;;;;;;;;;4986854;28;20442;-81
2022/09/24 02:08:58;;;;;;;49.37;38.37;;;;;;;;;;4986494;28;20438;-81
2022/09/24 02:11:26;;;;;;;49.97;38.87;;;;;;;;;;4985745;28;20920;-81
2022/09/24 02:13:59;;;;;;;49.33;39.47;;;;;;;;;;4988970;28;20428;-81
2022/09/24 02:16:27;;;;;;;45.13;37.85;;;;;;;;;;4986175;28;20428;-81
2022/09/24 02:18:57;;;;;;;49.25;37.53;;;;;;;;;;4986646;28;20453;-82
2022/09/24 02:21:26;;;;;;;49.15;39.80;;;;;;;;;;4988625;28;20840;-81
2022/09/24 02:23:55;;;;;;;46.60;38.85;;;;;;;;;;4984722;28;20835;-82
2022/09/24 02:26:22;;;;;;;47.03;38.00;;;;;;;;;;4988744;28;20820;-82
2022/09/24 02:28:48;;;;;;;53.33;38.15;;;;;;;;;;4986897;28;20437;-81
2022/09/24 02:31:17;;;;;;;48.35;39.00;;;;;;;;;;4987867;28;20442;-81
2022/09/24 02:36:32;;;;;;;49.17;38.20;;;;;;;;;;4987082;28;20498;-81
2022/09/24 02:38:58;;;;;;;52.17;39.90;;;;;;;;;;4986903;28;20431;-82
2022/09/24 02:41:25;;;;;;;49.90;39.40;;;;;;;;;;4986142;28;20424;-81
2022/09/24 02:43:52;;;;;;;51.15;39.20;;;;;;;;;;4986839;28;20430;-81
2022/09/24 02:46:19;;;;;;;49.95;38.85;;;;;;;;;;4987506;28;20432;-81
2022/09/24 02:48:46;;;;;;;53.50;42.03;;;;;;;;;;4982602;28;20437;-81
2022/09/24 02:51:15;;;;;;;54.42;39.05;;;;;;;;;;4986531;28;20492;-81
2022/09/24 02:53:42;;;;;;;52.33;39.03;;;;;;;;;;4987060;28;20432;-81
2022/09/24 02:56:10;;;;;;;54.65;41.03;;;;;;;;;;4987214;28;20439;-81
2022/09/24 02:58:37;;;;;;;50.15;40.42;;;;;;;;;;4986006;28;20937;-81
2022/09/24 03:01:04;;;;;;;55.13;39.40;;;;;;;;;;4986258;28;20505;-82
2022/09/24 03:03:31;;;;;;;48.53;38.35;;;;;;;;;;4987532;28;21003;-81
2022/09/24 03:05:57;;;;;;;47.50;38.53;;;;;;;;;;4985829;28;21209;-82
2022/09/24 03:08:24;;;;;;;48.40;37.38;;;;;;;;;;4983844;28;20437;-82
2022/09/24 03:10:52;;;;;;;47.00;36.75;;;;;;;;;;4984858;28;20439;-82
2022/09/24 03:13:19;;;;;;;48.83;38.70;;;;;;;;;;4983598;28;20995;-82
2022/09/24 03:15:46;;;;;;;47.40;35.88;;;;;;;;;;4987873;28;20516;-81
2022/09/24 03:18:12;;;;;;;44.45;35.90;;;;;;;;;;4985061;28;20432;-81
2022/09/24 03:20:38;;;;;;;46.10;35.97;;;;;;;;;;4989852;28;20518;-81
2022/09/24 03:23:05;;;;;;;45.13;36.25;;;;;;;;;;4985459;28;20799;-81
2022/09/24 03:25:31;;;;;;;43.30;34.70;;;;;;;;;;4985704;28;20438;-81
2022/09/24 03:27:59;;;;;;;47.83;34.95;;;;;;;;;;4983254;28;20426;-81
2022/09/24 03:33:09;;;;;;;40.70;32.88;;;;;;;;;;4985232;28;20539;-81
2022/09/24 03:35:35;;;;;;;42.35;32.92;;;;;;;;;;4985922;28;20763;-81
2022/09/24 03:38:02;;;;;;;42.40;33.30;;;;;;;;;;4986707;28;20432;-81
2022/09/24 03:40:28;;;;;;;40.22;31.83;;;;;;;;;;4984505;28;20438;-81
2022/09/24 03:42:55;;;;;;;43.42;33.67;;;;;;;;;;5016947;28;20434;-81
2022/09/24 03:45:22;;;;;;;40.72;32.63;;;;;;;;;;5018238;28;20443;-81
2022/09/24 03:47:51;;;;;;;41.28;31.35;;;;;;;;;;4984479;28;21066;-82
2022/09/24 03:50:17;;;;;;;38.88;32.92;;;;;;;;;;4986099;28;20418;-81
2022/09/24 03:52:44;;;;;;;39.13;31.35;;;;;;;;;;4984492;28;20426;-82
2022/09/24 03:55:11;;;;;;;39.22;32.50;;;;;;;;;;4988389;28;20435;-81
2022/09/24 03:57:37;;;;;;;42.55;32.63;;;;;;;;;;4987832;28;20412;-81
2022/09/24 04:00:04;;;;;;;44.17;33.10;;;;;;;;;;4985986;28;20457;-82
2022/09/24 04:02:33;;;;;;;38.83;31.88;;;;;;;;;;4985675;28;20438;-81
2022/09/24 04:04:59;;;;;;;40.53;33.90;;;;;;;;;;4985314;28;20872;-82
2022/09/24 04:07:26;;;;;;;41.90;32.80;;;;;;;;;;4986040;28;20521;-81
2022/09/24 04:09:52;;;;;;;45.20;33.90;;;;;;;;;;4986073;28;20805;-82
2022/09/24 04:12:19;;;;;;;44.97;33.70;;;;;;;;;;4985480;28;20435;-82
2022/09/24 04:14:45;;;;;;;42.30;34.10;;;;;;;;;;4985058;28;20490;-81
2022/09/24 04:17:13;;;;;;;43.80;35.60;;;;;;;;;;4983373;28;20445;-81
2022/09/24 04:19:40;;;;;;;43.78;35.63;;;;;;;;;;4983552;28;20998;-81
2022/09/24 04:22:07;;;;;;;47.78;35.75;;;;;;;;;;4985655;28;20441;-81
2022/09/24 04:24:34;;;;;;;45.03;35.80;;;;;;;;;;4986039;28;20526;-82
2022/09/24 04:27:00;;;;;;;45.95;35.72;;;;;;;;;;4982746;28;20449;-81
2022/09/24 04:29:26;;;;;;;47.90;35.28;;;;;;;;;;4984435;28;20428;-81
2022/09/24 04:31:54;;;;;;;44.85;35.58;;;;;;;;;;4985039;28;20430;-82
2022/09/24 04:34:20;;;;;;;48.85;37.03;;;;;;;;;;4983759;28;20477;-81
2022/09/24 04:36:48;;;;;;;46.05;35.63;;;;;;;;;;4984838;28;20433;-82
2022/09/24 04:39:15;;;;;;;50.33;36.28;;;;;;;;;;4984297;28;20452;-82
2022/09/24 04:41:42;;;;;;;48.13;37.88;;;;;;;;;;5016093;28;20438;-81
2022/09/24 04:44:12;;;;;;;51.40;38.50;;;;;;;;;;4984088;28;20430;-81
2022/09/24 04:46:39;;;;;;;50.53;38.45;;;;;;;;;;4985874;28;20457;-82
2022/09/24 04:49:08;;;;;;;58.35;42.08;;;;;;;;;;4983179;28;20436;-82
2022/09/24 04:51:35;;;;;;;50.22;39.45;;;;;;;;;;4985947;28;20446;-82
2022/09/24 04:54:03;;;;;;;55.97;41.13;;;;;;;;;;4983921;28;21033;-82
2022/09/24 04:56:30;;;;;;;54.47;41.97;;;;;;;;;;4986714;28;21133;-82
2022/09/24 04:58:56;;;;;;;59.13;43.08;;;;;;;;;;4985151;28;20433;-82
2022/09/24 05:01:23;;;;;;;59.53;45.22;;;;;;;;;;4983168;28;20451;-82
2022/09/24 05:03:50;;;;;;;57.87;42.53;;;;;;;;;;4985378;28;20434;-82
2022/09/24 05:06:16;;;;;;;59.35;44.47;;;;;;;;;;4980657;28;20796;-83
2022/09/24 05:08:43;;;;;;;63.83;47.70;;;;;;;;;;4985465;28;20808;-81
2022/09/24 05:11:11;;;;;;;62.20;44.73;;;;;;;;;;4985312;28;20436;-81
2022/09/24 05:13:38;;;;;;;62.83;45.90;;;;;;;;;;4982362;28;20432;-82
2022/09/24 05:16:04;;;;;;;62.85;45.97;;;;;;;;;;4981370;28;20415;-82
2022/09/24 05:18:31;;;;;;;66.28;47.88;;;;;;;;;;4984267;28;21093;-83
2022/09/24 05:20:57;;;;;;;66.22;48.53;;;;;;;;;;4984177;28;20435;-82
2022/09/24 05:23:24;;;;;;;71.68;50.70;;;;;;;;;;4983839;28;20442;-83
2022/09/24 05:28:37;;;;;;;64.95;49.83;;;;;;;;;;4980966;28;20451;-82
2022/09/24 05:31:03;;;;;;;72.82;50.47;;;;;;;;;;4984455;28;20446;-82
2022/09/24 05:33:31;;;;;;;73.68;52.35;;;;;;;;;;4988984;28;20428;-80
2022/09/24 05:35:57;;;;;;;75.03;52.42;;;;;;;;;;4988866;28;20435;-80
2022/09/24 05:38:24;;;;;;;80.53;54.17;;;;;;;;;;4988264;28;20434;-79
2022/09/24 05:40:50;;;;;;;75.30;52.97;;;;;;;;;;4993014;28;20436;-80
2022/09/24 05:43:18;;;;;;;73.22;52.38;;;;;;;;;;4987857;28;20426;-80
2022/09/24 05:45:45;;;;;;;79.85;54.10;;;;;;;;;;4988065;28;20436;-81
2022/09/24 05:48:12;;;;;;;78.22;54.00;;;;;;;;;;4987169;28;21128;-80
2022/09/24 05:50:41;;;;;;;80.50;55.72;;;;;;;;;;4987782;28;20436;-80
2022/09/24 05:53:08;;;;;;;81.60;54.65;;;;;;;;;;4988155;28;20516;-80
2022/09/24 05:55:35;;;;;;;86.00;56.30;;;;;;;;;;4990266;28;20446;-80
2022/09/24 05:58:02;;;;;;;83.43;57.25;;;;;;;;;;4987319;28;20440;-80
2022/09/24 06:00:29;;;;;;;83.30;55.15;;;;;;;;;;4985862;28;20430;-80
2022/09/24 06:03:04;;;;;;;86.93;58.90;;;;;;;;;;4988397;28;20430;-80
2022/09/24 06:05:30;;;;;;;87.10;58.65;;;;;;;;;;4988560;28;20949;-80
2022/09/24 06:07:57;;;;;;;84.30;55.15;;;;;;;;;;4987142;28;20414;-80
2022/09/24 06:10:25;;;;;;;83.25;56.08;;;;;;;;;;4988535;28;20434;-81
2022/09/24 06:12:52;;;;;;;89.65;56.97;;;;;;;;;;4983106;28;20433;-82
2022/09/24 06:15:19;;;;;;;81.75;55.38;;;;;;;;;;4988380;28;20445;-82
2022/09/24 06:17:46;;;;;;;82.63;58.70;;;;;;;;;;4986864;28;20427;-82
2022/09/24 06:20:14;;;;;;;83.87;55.70;;;;;;;;;;4985706;28;20432;-83
2022/09/24 06:22:40;;;;;;;84.40;55.45;;;;;;;;;;4982924;28;20418;-82
2022/09/24 06:25:07;;;;;;;84.70;54.38;;;;;;;;;;4985720;28;20454;-83
2022/09/24 06:27:34;;;;;;;79.25;54.72;;;;;;;;;;4985903;28;20415;-82
2022/09/24 06:30:00;;;;;;;80.82;55.28;;;;;;;;;;4986186;28;20888;-83
2022/09/24 06:32:27;;;;;;;86.68;57.33;;;;;;;;;;4985946;28;20441;-82
2022/09/24 06:34:53;;;;;;;85.63;55.17;;;;;;;;;;4986362;28;20902;-82
2022/09/24 06:37:21;;;;;;;85.72;57.05;;;;;;;;;;4986021;28;20438;-83
2022/09/24 06:39:47;;;;;;;79.45;55.05;;;;;;;;;;4985599;28;20444;-82
2022/09/24 06:42:14;;;;;;;81.97;57.88;;;;;;;;;;4985606;28;20804;-83
2022/09/24 06:44:41;;;;;;;84.63;57.35;;;;;;;;;;4986799;28;20802;-82
2022/09/24 06:47:07;;;;;;;89.47;59.17;;;;;;;;;;4986133;28;20483;-82
2022/09/24 06:49:33;;;;;;;92.43;58.45;;;;;;;;;;4988312;28;20443;-83
2022/09/24 06:52:00;;;;;;;95.47;58.13;;;;;;;;;;4985279;28;20445;-81
2022/09/24 06:54:27;;;;;;;91.95;56.85;;;;;;;;;;4985364;28;20932;-82
2022/09/24 06:56:54;;;;;;;94.50;60.73;;;;;;;;;;4985336;28;20429;-82
2022/09/24 06:59:20;;;;;;;89.88;61.58;;;;;;;;;;4985376;28;20429;-82
2022/09/24 07:01:47;;;;;;;88.53;59.40;;;;;;;;;;4986820;28;20429;-82
2022/09/24 07:04:13;;;;;;;87.93;58.72;;;;;;;;;;4986489;28;20800;-83
2022/09/24 07:09:24;;;;;;;95.00;62.72;;;;;;;;;;4986067;28;20448;-82
2022/09/24 07:11:52;;;;;;;94.65;60.88;;;;;;;;;;4985677;28;20442;-79
2022/09/24 07:14:18;;;;;;;88.82;59.85;;;;;;;;;;4986276;28;20426;-83
2022/09/24 07:16:47;;;;;;;93.00;60.20;;;;;;;;;;4984465;28;20434;-82
2022/09/24 07:19:13;;;;;;;91.40;59.75;;;;;;;;;;4985786;28;20475;-83
2022/09/24 07:21:39;;;;;;;93.37;59.50;;;;;;;;;;4988208;28;20439;-83
2022/09/24 07:24:06;;;;;;;91.80;59.30;;;;;;;;;;4987303;28;20432;-82
2022/09/24 07:26:32;;;;;;;91.20;60.23;;;;;;;;;;4986715;28;20446;-82
2022/09/24 07:29:00;;;;;;;105.40;64.20;;;;;;;;;;4984036;28;20418;-80
2022/09/24 07:31:27;;;;;;;100.13;63.83;;;;;;;;;;4984992;28;20418;-82
2022/09/24 07:33:54;;;;;;;98.60;62.70;;;;;;;;;;4985460;28;20430;-83
2022/09/24 07:36:21;;;;;;;95.70;62.80;;;;;;;;;;4985455;28;20434;-83
2022/09/24 07:38:48;;;;;;;96.47;62.35;;;;;;;;;;4984177;28;20990;-83
2022/09/24 07:41:14;;;;;;;111.60;67.43;;;;;;;;;;4984959;28;20449;-82
2022/09/24 07:43:42;;;;;;;105.75;65.72;;;;;;;;;;4985192;28;20420;-83
2022/09/24 07:46:10;;;;;;;103.97;64.40;;;;;;;;;;4985603;28;20434;-81
2022/09/24 07:48:36;;;;;;;94.72;62.03;;;;;;;;;;5015991;28;20432;-81
2022/09/24 07:51:04;;;;;;;103.32;64.05;;;;;;;;;;5001657;28;20425;-81
2022/09/24 07:53:30;;;;;;;96.38;62.97;;;;;;;;;;4981632;28;20428;-82
2022/09/24 07:55:58;;;;;;;96.17;62.47;;;;;;;;;;4985959;28;20435;-81
2022/09/24 07:58:25;;;;;;;97.95;63.15;;;;;;;;;;4986071;28;20431;-81
2022/09/24 08:00:52;;;;;;;92.93;61.60;;;;;;;;;;5016822;28;20422;-81
2022/09/24 08:03:19;;;;;;;101.28;62.53;;;;;;;;;;4984241;28;20428;-80
2022/09/24 08:05:46;;;;;;;106.68;65.43;;;;;;;;;;4984820;28;20433;-80
2022/09/24 08:08:13;;;;;;;96.90;63.13;;;;;;;;;;4988017;28;20422;-81
2022/09/24 08:10:40;;;;;;;95.93;61.72;;;;;;;;;;4987017;28;20446;-81
2022/09/24 08:13:07;;;;;;;97.70;63.20;;;;;;;;;;4985872;28;20430;-82
2022/09/24 08:15:33;;;;;;;92.72;60.00;;;;;;;;;;4984917;28;20914;-80
2022/09/24 08:18:01;;;;;;;94.25;60.42;;;;;;;;;;4986244;28;20420;-80
2022/09/24 08:20:29;;;;;;;91.05;59.60;;;;;;;;;;4986903;28;21024;-81
2022/09/24 08:23:00;;;;;;;97.60;61.10;;;;;;;;;;4984265;28;20423;-80
2022/09/24 08:25:26;;;;;;;93.10;59.58;;;;;;;;;;4984708;28;20449;-81
2022/09/24 08:27:53;;;;;;;85.90;57.03;;;;;;;;;;5001283;28;20441;-81
2022/09/24 08:30:20;;;;;;;84.95;58.03;;;;;;;;;;4984646;28;20434;-81
2022/09/24 08:32:47;;;;;;;79.25;54.55;;;;;;;;;;4985525;28;20437;-80
2022/09/24 08:35:21;;;;;;;81.80;55.73;;;;;;;;;;5015554;28;20452;-81
2022/09/24 08:37:49;;;;;;;86.00;55.85;;;;;;;;;;4984750;28;20564;-81
2022/09/24 08:40:17;;;;;;;78.82;54.28;;;;;;;;;;4985503;28;20442;-80
2022/09/24 08:42:48;;;;;;;73.32;53.50;;;;;;;;;;4983522;28;20426;-81
2022/09/24 08:48:12;;;;;;;66.18;46.72;;;;;;;;;;4955476;28;20869;-81
2022/09/24 08:50:40;;;;;;;66.73;48.47;;;;;;;;;;5014065;28;20601;-83
2022/09/24 08:53:13;;;;;;;59.60;45.75;;;;;;;;;;4982769;28;20435;-81
2022/09/24 08:55:41;;;;;;;55.35;43.05;;;;;;;;;;4976444;28;20463;-80
2022/09/24 08:58:25;;;;;;;57.70;46.33;;;;;;;;;;4978568;28;20533;-80
2022/09/24 09:00:55;;;;;;;61.63;45.38;;;;;;;;;;4979444;28;20794;-82
2022/09/24 09:03:27;;;;;;;56.72;44.15;;;;;;;;;;4980548;28;20422;-82
2022/09/24 09:05:57;;;;;;;62.88;45.22;;;;;;;;;;4982167;28;20442;-82
2022/09/24 09:08:30;;;;;;;47.67;39.88;;;;;;;;;;4987623;28;20415;-80
2022/09/24 09:10:59;;;;;;;54.03;41.35;;;;;;;;;;4984944;28;20853;-81
2022/09/24 09:13:27;;;;;;;51.80;41.58;;;;;;;;;;4984940;28;20797;-81
2022/09/24 09:15:59;;;;;;;52.10;40.75;;;;;;;;;;4987012;28;20506;-81
2022/09/24 09:18:28;;;;;;;50.95;42.05;;;;;;;;;;4985142;28;20460;-80
2022/09/24 09:20:56;;;;;;;52.08;41.78;;;;;;;;;;4983386;28;20435;-82
2022/09/24 09:23:28;;;;;;;54.23;41.63;;;;;;;;;;4984101;28;20430;-80
2022/09/24 09:25:57;;;;;;;53.38;40.20;;;;;;;;;;4986673;28;20439;-81
2022/09/24 09:28:25;;;;;;;50.30;41.40;;;;;;;;;;4984924;28;20532;-81
2022/09/24 09:30:58;;;;;;;50.28;39.85;;;;;;;;;;5017782;28;20441;-81
2022/09/24 09:33:34;;;;;;;50.42;41.10;;;;;;;;;;5017186;28;20422;-81
2022/09/24 09:36:02;;;;;;;53.07;43.40;;;;;;;;;;4987406;28;20441;-81
2022/09/24 09:38:30;;;;;;;50.85;39.70;;;;;;;;;;4986788;28;20431;-80
2022/09/24 09:41:03;;;;;;;56.67;40.92;;;;;;;;;;4983892;28;20445;-81
2022/09/24 09:43:29;;;;;;;57.13;40.83;;;;;;;;;;4984668;28;20424;-82
2022/09/24 09:46:01;;;;;;;54.30;41.03;;;;;;;;;;4985363;28;20516;-80
2022/09/24 09:48:30;;;;;;;53.13;41.50;;;;;;;;;;4986775;28;20440;-81
2022/09/24 09:50:59;;;;;;;53.10;40.07;;;;;;;;;;4985318;28;20470;-80
2022/09/24 09:53:28;;;;;;;55.45;42.38;;;;;;;;;;4984441;28;20430;-83
2022/09/24 09:55:56;;;;;;;56.90;41.50;;;;;;;;;;4986058;28;20435;-81
2022/09/24 09:58:25;;;;;;;61.10;42.65;;;;;;;;;;4983587;28;20441;-81
2022/09/24 10:00:51;;;;;;;60.17;42.60;;;;;;;;;;4983289;28;20436;-81
2022/09/24 10:03:24;;;;;;;61.28;44.58;;;;;;;;;;4985972;28;20915;-80
2022/09/24 10:05:57;;;;;;;60.67;42.58;;;;;;;;;;4984478;28;20439;-80
2022/09/24 10:08:24;;;;;;;61.30;43.28;;;;;;;;;;4985515;28;20432;-81
2022/09/24 10:10:55;;;;;;;60.60;43.40;;;;;;;;;;4982477;28;20447;-83
2022/09/24 10:13:21;;;;;;;60.85;43.03;;;;;;;;;;4988034;28;20432;-82
2022/09/24 10:15:51;;;;;;;65.22;45.60;;;;;;;;;;4986974;28;20453;-82
2022/09/24 10:18:21;;;;;;;67.13;46.70;;;;;;;;;;4984208;28;20434;-82
2022/09/24 10:20:48;;;;;;;70.13;46.90;;;;;;;;;;4986201;28;20454;-81
2022/09/24 10:23:18;;;;;;;64.97;46.90;;;;;;;;;;4986831;28;20487;-81
2022/09/24 10:25:49;;;;;;;71.88;47.22;;;;;;;;;;4987535;28;20440;-82
2022/09/24 10:31:04;;;;;;;74.97;47.90;;;;;;;;;;4986114;28;20472;-81
2022/09/24 10:33:35;;;;;;;67.72;47.83;;;;;;;;;;4988321;28;20431;-81
2022/09/24 10:36:03;;;;;;;70.57;47.90;;;;;;;;;;4985836;28;20429;-81
2022/09/24 10:38:30;;;;;;;74.07;49.90;;;;;;;;;;4987045;28;20484;-82
2022/09/24 10:41:00;;;;;;;67.47;46.20;;;;;;;;;;4986705;28;20784;-82
2022/09/24 10:43:26;;;;;;;70.50;46.75;;;;;;;;;;4984770;28;20544;-81
2022/09/24 10:46:01;;;;;;;70.60;46.85;;;;;;;;;;4987206;28;20445;-82
2022/09/24 10:48:34;;;;;;;65.22;44.97;;;;;;;;;;4985116;28;20994;-82
2022/09/24 10:51:04;;;;;;;67.60;45.75;;;;;;;;;;4987221;28;20443;-82
2022/09/24 10:53:40;;;;;;;64.80;45.50;;;;;;;;;;4985183;28;20435;-81
2022/09/24 10:56:10;;;;;;;65.43;45.05;;;;;;;;;;4985964;28;20426;-82
2022/09/24 10:58:50;;;;;;;65.63;46.17;;;;;;;;;;4985028;28;20435;-81
2022/09/24 11:01:18;;;;;;;65.22;46.22;;;;;;;;;;4986218;28;20434;-82
2022/09/24 11:03:59;;;;;;;67.13;46.42;;;;;;;;;;5014802;28;20445;-82
2022/09/24 11:06:34;;;;;;;67.47;46.25;;;;;;;;;;4986521;28;20448;-81
2022/09/24 11:09:07;;;;;;;64.50;45.50;;;;;;;;;;4988624;28;20435;-82
2022/09/24 11:11:39;;;;;;;61.83;43.72;;;;;;;;;;4984088;28;20438;-81
2022/09/24 11:14:13;;;;;;;61.90;44.03;;;;;;;;;;4987157;28;20419;-82
2022/09/24 11:16:57;;;;;;;62.95;44.53;;;;;;;;;;4985837;28;20960;-82
2022/09/24 11:19:32;;;;;;;65.72;44.45;;;;;;;;;;4976352;28;20440;-81
2022/09/24 11:22:06;;;;;;;63.40;44.97;;;;;;;;;;4985567;28;20858;-81
2022/09/24 11:24:38;;;;;;;61.97;44.85;;;;;;;;;;4985882;28;20431;-82
2022/09/24 11:27:12;;;;;;;62.23;46.20;;;;;;;;;;4986393;28;20433;-81
2022/09/24 11:29:46;;;;;;;62.83;45.45;;;;;;;;;;4987959;28;20438;-81
2022/09/24 11:32:18;;;;;;;65.57;46.50;;;;;;;;;;4984012;28;20918;-82
2022/09/24 11:35:00;;;;;;;61.78;44.90;;;;;;;;;;4985436;28;20443;-82
2022/09/24 11:37:38;;;;;;;63.40;46.70;;;;;;;;;;4983022;28;20426;-81
2022/09/24 11:40:16;;;;;;;65.27;45.80;;;;;;;;;;5017488;28;20445;-82
2022/09/24 11:42:48;;;;;;;60.65;44.05;;;;;;;;;;4986374;28;20418;-82
2022/09/24 11:45:20;;;;;;;64.13;46.85;;;;;;;;;;4984977;28;20808;-82
2022/09/24 11:47:54;;;;;;;65.32;46.65;;;;;;;;;;4983411;28;20458;-81
2022/09/24 11:50:27;;;;;;;67.72;46.15;;;;;;;;;;4986241;28;20430;-81
2022/09/24 11:52:59;;;;;;;69.03;48.08;;;;;;;;;;4985930;28;21217;-80
2022/09/24 11:55:33;;;;;;;66.43;46.05;;;;;;;;;;4984388;28;20443;-82
2022/09/24 11:58:04;;;;;;;61.33;43.95;;;;;;;;;;4984294;28;20502;-83
2022/09/24 12:00:34;;;;;;;56.00;42.47;;;;;;;;;;4984930;28;20437;-81
2022/09/24 12:03:03;;;;;;;58.10;41.28;;;;;;;;;;5017971;28;20439;-82
2022/09/24 12:05:32;;;;;;;61.22;44.45;;;;;;;;;;4984787;28;20431;-82
2022/09/24 12:08:02;;;;;;;56.07;40.00;;;;;;;;;;4982539;28;20430;-82
2022/09/24 12:10:33;;;;;;;56.25;42.33;;;;;;;;;;4984368;28;20434;-81
2022/09/24 12:13:04;;;;;;;54.25;42.13;;;;;;;;;;4986279;28;20422;-83
2022/09/24 12:15:38;;;;;;;53.65;41.17;;;;;;;;;;4984651;28;20510;-81
2022/09/24 12:18:07;;;;;;;58.55;43.40;;;;;;;;;;4984999;28;20450;-83
2022/09/24 12:20:40;;;;;;;58.87;42.53;;;;;;;;;;4984720;28;20463;-82
2022/09/24 12:23:11;;;;;;;60.65;42.45;;;;;;;;;;4982735;28;20511;-82
2022/09/24 12:25:39;;;;;;;56.25;41.67;;;;;;;;;;4983397;28;20488;-82
2022/09/24 12:28:10;;;;;;;60.72;41.25;;;;;;;;;;4984723;28;20422;-82
2022/09/24 12:33:27;;;;;;;58.88;42.55;;;;;;;;;;4986201;28;20542;-83
2022/09/24 12:36:04;;;;;;;58.10;42.67;;;;;;;;;;4982933;28;20459;-83
2022/09/24 12:38:35;;;;;;;58.28;42.30;;;;;;;;;;4997160;28;20429;-82
2022/09/24 12:41:11;;;;;;;58.58;41.35;;;;;;;;;;5016810;28;20442;-81
2022/09/24 12:43:42;;;;;;;59.20;43.38;;;;;;;;;;4984504;28;20422;-81
2022/09/24 12:46:16;;;;;;;60.67;43.05;;;;;;;;;;4984498;28;20428;-81
2022/09/24 12:48:43;;;;;;;63.08;44.42;;;;;;;;;;4984523;28;20808;-82
2022/09/24 12:51:11;;;;;;;60.47;42.95;;;;;;;;;;4984200;28;20437;-81
2022/09/24 12:53:41;;;;;;;63.13;45.63;;;;;;;;;;4982320;28;21397;-82
2022/09/24 12:56:08;;;;;;;59.85;42.83;;;;;;;;;;4984854;28;20438;-82
2022/09/24 12:58:38;;;;;;;53.63;41.20;;;;;;;;;;4980012;28;20485;-82
2022/09/24 13:01:06;;;;;;;57.92;42.03;;;;;;;;;;4981732;28;20430;-82
2022/09/24 13:03:35;;;;;;;52.80;38.65;;;;;;;;;;4981025;28;20849;-82
2022/09/24 13:06:01;;;;;;;51.17;37.53;;;;;;;;;;4985272;28;20436;-82
2022/09/24 13:08:37;;;;;;;56.20;39.90;;;;;;;;;;4983966;28;20973;-83
2022/09/24 13:11:25;;;;;;;50.42;35.70;;;;;;;;;;4982757;28;20809;-82
2022/09/24 13:13:57;;;;;;;45.17;33.70;;;;;;;;;;4984299;28;20431;-82
2022/09/24 13:16:24;;;;;;;49.33;34.43;;;;;;;;;;4979921;28;21130;-83
2022/09/24 13:18:52;;;;;;;49.33;35.67;;;;;;;;;;4981374;28;20430;-82
2022/09/24 13:21:20;;;;;;;43.95;33.17;;;;;;;;;;4982202;28;20691;-82
2022/09/24 13:23:47;;;;;;;50.13;35.53;;;;;;;;;;4984822;28;20437;-83
2022/09/24 13:26:26;;;;;;;50.60;35.55;;;;;;;;;;4982040;28;20856;-82
2022/09/24 13:28:57;;;;;;;50.03;35.63;;;;;;;;;;4982126;28;20422;-83
2022/09/24 13:31:27;;;;;;;54.78;40.05;;;;;;;;;;5014837;28;20812;-83
2022/09/24 13:33:55;;;;;;;57.90;41.03;;;;;;;;;;4982621;28;20428;-81
2022/09/24 13:36:26;;;;;;;56.78;41.10;;;;;;;;;;4982434;28;20434;-82
2022/09/24 13:38:55;;;;;;;65.90;44.78;;;;;;;;;;4983708;28;20518;-82
2022/09/24 13:41:30;;;;;;;62.72;44.80;;;;;;;;;;4983116;28;20444;-83
2022/09/24 13:44:00;;;;;;;67.43;46.97;;;;;;;;;;4983704;28;20424;-83
2022/09/24 13:46:27;;;;;;;63.72;44.95;;;;;;;;;;4983418;28;20465;-82
2022/09/24 13:48:56;;;;;;;59.35;45.10;;;;;;;;;;4982661;28;20480;-82
2022/09/24 13:51:25;;;;;;;65.57;45.65;;;;;;;;;;4981319;28;20434;-83
2022/09/24 13:53:53;;;;;;;62.60;46.05;;;;;;;;;;4987936;28;20450;-83
2022/09/24 13:56:19;;;;;;;64.95;48.50;;;;;;;;;;4985521;28;20430;-82
2022/09/24 13:58:50;;;;;;;66.68;47.55;;;;;;;;;;4985176;28;20428;-82
2022/09/24 14:01:19;;;;;;;62.60;46.67;;;;;;;;;;4989517;28;20438;-82
2022/09/24 14:03:52;;;;;;;66.73;46.40;;;;;;;;;;4986630;28;20438;-82
2022/09/24 14:06:21;;;;;;;57.28;42.10;;;;;;;;;;4987489;28;20428;-83
2022/09/24 14:08:50;;;;;;;59.78;43.83;;;;;;;;;;4990424;28;20434;-82
2022/09/24 14:11:18;;;;;;;61.47;45.03;;;;;;;;;;4988562;28;20414;-83
2022/09/24 14:13:46;;;;;;;56.80;42.83;;;;;;;;;;4988162;28;20438;-82
2022/09/24 14:16:17;;;;;;;63.55;43.47;;;;;;;;;;4988233;28;20440;-83
2022/09/24 14:18:45;;;;;;;61.55;43.75;;;;;;;;;;4985846;28;20449;-82
2022/09/24 14:21:14;;;;;;;61.20;43.30;;;;;;;;;;4985012;28;20449;-83
2022/09/24 14:23:42;;;;;;;56.63;41.85;;;;;;;;;;4987654;28;20427;-83
2022/09/24 14:26:16;;;;;;;56.88;40.97;;;;;;;;;;4984648;28;20439;-83
2022/09/24 14:28:42;;;;;;;51.97;37.33;;;;;;;;;;4986830;28;20430;-84
2022/09/24 14:31:09;;;;;;;58.60;40.92;;;;;;;;;;4987604;28;20443;-83
2022/09/24 14:33:38;;;;;;;55.90;41.03;;;;;;;;;;4986297;28;20953;-82
2022/09/24 14:36:05;;;;;;;57.83;42.30;;;;;;;;;;4985148;28;20434;-83
2022/09/24 14:38:34;;;;;;;56.00;40.65;;;;;;;;;;4985328;28;20422;-83
2022/09/24 14:41:03;;;;;;;57.70;42.08;;;;;;;;;;4986636;28;20441;-83
2022/09/24 14:43:32;;;;;;;55.70;40.50;;;;;;;;;;4983129;28;20424;-82
2022/09/24 14:46:05;;;;;;;52.50;39.20;;;;;;;;;;4985480;28;20490;-83
2022/09/24 14:48:33;;;;;;;53.08;39.20;;;;;;;;;;4986107;28;20426;-83
2022/09/24 14:51:01;;;;;;;51.35;39.38;;;;;;;;;;4985400;28;20435;-82